El Salvador International Airport
MSLP : now visible

Airfield :











YOU CAN JOIN US ON...

 
LOGIN :

Register | Disclaimer

   EN    FR    IT 

 









Legend :    VFR   Marginal VFR   IFR   Intensive IFR   Very Intensive IFR
Visi :
Ceiling :
>= 8 km
>= 3000ft
5 to 8 km
1000 to 3000 ft
1500m to 5 km
500 to 1000 ft
800 to 1500m
200 to 500 ft
< 800m
< 200 ft
Symbols :   Thunderstorms  Fog  Heavy snow  Heavy precipitations  Wind > 20 kt






- Airport Elevation : 101 ft
- IATA code : SAL


MSLP - El Salvador International

CURRENT METAR :
  • 250850Z VRB02KT 9999 -RA FEW043 SCT077 22/21 Q1013 A2991 N OSIG

EXPIRED METARs :
  • 250750Z 33004KT 9999 -RA FEW043 SCT077 22/21 Q1013 A2993 N OSIG
  • 250650Z 27004KT 230V300 9000 -RA FEW040 SCT076 22/21 Q1014 A2995 NOSIG RMK DSTN CB S SW

TAF TAF MSLP
Valid from the 25 at 06:00 until the 26 at 06:00 UTC


250325Z 2506/2606 04005KT 8000 RA SCT013 FEW040CB BKN050 TX3 2/2518Z TN21/2509Z
FM250900 9999 NSW SCT010 BKN060
FM251200 08006KT 9 999 FEW017 SCT070
FM251800 22007KT 9999 SCT023 FEW040CB
FM260000 VRB0 3KT
TEMPO 2603/2606 08009KT 5000 TSRA BKN023 SCT037CB
MHTG FIR / North America



MET'MAP, your aeronautical weather chart ! - Copyright ORBIFLY December 2007 - Disclaimer

ORBIFLY MET'MAP TEAM :

Programming & Development : Alexandra Zaïnal
Concept & original design : Baudouin d'Aumeries
Assistance for programming : Marc-Olivier Méhu
Technical & hardware support : Manuel Goepfert

Contact : metmap@orbifly.com




SOURCES & CREDITS :

   NOAA       Earth
Advisory